createdAt,value
2022-09-18T00:01:16.163Z,19.37
2022-09-18T00:03:42.919Z,20.57
2022-09-18T00:06:14.617Z,18.80
2022-09-18T00:08:43.497Z,17.17
2022-09-18T00:11:12.460Z,21.77
2022-09-18T00:13:39.701Z,16.00
2022-09-18T00:16:07.846Z,15.73
2022-09-18T00:18:34.580Z,18.50
2022-09-18T00:21:14.033Z,15.33
2022-09-18T00:23:40.830Z,14.97
2022-09-18T00:26:08.905Z,15.63
2022-09-18T00:28:35.873Z,16.80
2022-09-18T00:31:15.629Z,13.00
2022-09-18T00:33:42.395Z,14.40
2022-09-18T00:36:14.646Z,16.10
2022-09-18T00:38:41.633Z,14.60
2022-09-18T00:41:13.537Z,15.17
2022-09-18T00:43:39.976Z,18.93
2022-09-18T00:46:23.780Z,12.07
2022-09-18T00:49:14.490Z,13.97
2022-09-18T00:51:41.742Z,13.80
2022-09-18T00:54:18.316Z,15.60
2022-09-18T00:56:45.733Z,14.03
2022-09-18T00:59:14.659Z,18.20
2022-09-18T01:01:41.150Z,14.47
2022-09-18T01:04:11.449Z,16.00
2022-09-18T01:07:15.214Z,17.13
2022-09-18T01:10:13.603Z,12.50
2022-09-18T01:12:49.929Z,13.63
2022-09-18T01:15:48.418Z,16.63
2022-09-18T01:18:32.405Z,14.07
2022-09-18T01:21:10.097Z,14.47
2022-09-18T01:23:39.514Z,14.77
2022-09-18T01:26:36.826Z,13.27
2022-09-18T01:29:31.796Z,17.63
2022-09-18T01:32:22.107Z,18.30
2022-09-18T01:34:56.423Z,14.53
2022-09-18T01:37:32.736Z,17.00
2022-09-18T01:40:10.944Z,17.13
2022-09-18T01:42:38.405Z,20.80
2022-09-18T01:45:08.393Z,18.47
2022-09-18T01:47:39.584Z,16.97
2022-09-18T01:50:07.698Z,15.83
2022-09-18T01:52:38.689Z,21.67
2022-09-18T01:55:08.999Z,19.20
2022-09-18T01:57:44.940Z,19.57
2022-09-18T02:00:12.352Z,21.23
2022-09-18T02:02:46.066Z,21.17
2022-09-18T02:05:18.745Z,15.43
2022-09-18T02:07:54.468Z,17.10
2022-09-18T02:10:22.935Z,21.40
2022-09-18T02:12:51.232Z,25.43
2022-09-18T02:15:17.783Z,17.00
2022-09-18T02:17:51.144Z,20.63
2022-09-18T02:20:28.883Z,21.33
2022-09-18T02:22:58.167Z,17.97
2022-09-18T02:25:29.474Z,25.60
2022-09-18T02:27:57.002Z,23.17
2022-09-18T02:30:23.945Z,21.53
2022-09-18T02:32:55.548Z,22.20
2022-09-18T02:35:23.809Z,22.73
2022-09-18T02:37:52.714Z,24.10
2022-09-18T02:40:22.414Z,23.10
2022-09-18T02:43:32.165Z,20.77
2022-09-18T02:46:13.342Z,24.17
2022-09-18T02:49:01.456Z,20.40
2022-09-18T02:51:55.291Z,26.17
2022-09-18T02:54:29.811Z,26.07
2022-09-18T02:56:59.821Z,24.00
2022-09-18T02:59:32.175Z,22.93
2022-09-18T03:01:59.311Z,26.77
2022-09-18T03:04:27.395Z,30.03
2022-09-18T03:06:54.145Z,28.67
2022-09-18T03:09:20.841Z,18.57
2022-09-18T03:11:47.340Z,23.43
2022-09-18T03:14:13.797Z,24.67
2022-09-18T03:16:40.301Z,28.33
2022-09-18T03:19:06.855Z,26.87
2022-09-18T03:21:33.607Z,24.90
2022-09-18T03:24:00.429Z,22.43
2022-09-18T03:26:26.931Z,24.80
2022-09-18T03:28:53.389Z,28.67
2022-09-18T03:31:19.933Z,25.80
2022-09-18T03:33:46.740Z,21.63
2022-09-18T03:36:13.243Z,24.13
2022-09-18T03:38:40.945Z,28.07
2022-09-18T03:41:07.435Z,31.80
2022-09-18T03:43:34.395Z,24.63
2022-09-18T03:46:01.513Z,24.53
2022-09-18T03:48:28.386Z,20.73
2022-09-18T03:50:54.853Z,26.40
2022-09-18T03:53:21.347Z,22.83
2022-09-18T03:55:49.755Z,26.07
2022-09-18T03:58:16.376Z,26.27
2022-09-18T04:00:43.087Z,22.47
2022-09-18T04:03:09.568Z,20.30
2022-09-18T04:05:36.255Z,20.73
2022-09-18T04:08:02.801Z,22.80
2022-09-18T04:10:29.206Z,24.43
2022-09-18T04:12:55.651Z,22.63
2022-09-18T04:15:22.125Z,24.20
2022-09-18T04:17:48.773Z,22.10
2022-09-18T04:20:15.223Z,21.30
2022-09-18T04:22:41.757Z,18.83
2022-09-18T04:25:08.607Z,21.43
2022-09-18T04:27:36.251Z,20.77
2022-09-18T04:30:03.244Z,27.37
2022-09-18T04:32:29.761Z,23.60
2022-09-18T04:34:56.240Z,19.70
2022-09-18T04:37:22.787Z,16.17
2022-09-18T04:39:49.314Z,22.40
2022-09-18T04:42:15.813Z,22.50
2022-09-18T04:44:42.453Z,19.17
2022-09-18T04:47:08.934Z,22.63
2022-09-18T04:49:35.463Z,19.73
2022-09-18T04:52:02.342Z,18.47
2022-09-18T04:54:28.780Z,17.47
2022-09-18T04:56:55.421Z,20.70
2022-09-18T04:59:21.884Z,19.13
2022-09-18T05:01:48.609Z,20.33
2022-09-18T05:04:15.161Z,18.17
2022-09-18T05:06:41.758Z,17.77
2022-09-18T05:09:08.212Z,18.93
2022-09-18T05:11:34.855Z,27.10
2022-09-18T05:14:01.462Z,22.90
2022-09-18T05:16:28.125Z,20.07
2022-09-18T05:18:54.716Z,23.03
2022-09-18T05:21:21.190Z,14.67
2022-09-18T05:23:48.085Z,19.73
2022-09-18T05:26:14.788Z,20.00
2022-09-18T05:28:41.277Z,19.13
2022-09-18T05:31:07.882Z,17.80
2022-09-18T05:33:34.657Z,18.23
2022-09-18T05:36:01.675Z,21.67
2022-09-18T05:38:28.223Z,21.00
2022-09-18T05:40:54.973Z,10.87
2022-09-18T05:43:21.600Z,23.80
2022-09-18T05:45:48.100Z,18.33
2022-09-18T05:48:14.784Z,25.90
2022-09-18T05:50:42.832Z,21.87
2022-09-18T05:53:17.222Z,16.60
2022-09-18T05:55:43.864Z,19.23
2022-09-18T05:58:13.092Z,16.87
2022-09-18T06:00:39.528Z,18.67
2022-09-18T06:03:09.040Z,16.80
2022-09-18T06:05:37.669Z,18.33
2022-09-18T06:08:06.045Z,18.63
2022-09-18T06:10:33.850Z,17.83
2022-09-18T06:13:04.500Z,21.93
2022-09-18T06:15:32.101Z,16.40
2022-09-18T06:17:58.804Z,15.60
2022-09-18T06:20:25.342Z,17.57
2022-09-18T06:22:51.856Z,13.33
2022-09-18T06:25:21.631Z,10.53
2022-09-18T06:27:50.501Z,11.97
2022-09-18T06:30:17.000Z,14.70
2022-09-18T06:32:43.549Z,15.10
2022-09-18T06:35:10.130Z,9.73
2022-09-18T06:37:36.579Z,10.17
2022-09-18T06:40:04.028Z,10.50
2022-09-18T06:42:30.761Z,10.40
2022-09-18T06:44:57.298Z,12.60
2022-09-18T06:47:23.765Z,9.87
2022-09-18T06:49:50.229Z,10.83
2022-09-18T06:52:16.665Z,9.60
2022-09-18T06:54:43.114Z,8.63
2022-09-18T06:57:09.585Z,9.83
2022-09-18T06:59:38.110Z,12.20
2022-09-18T07:02:06.165Z,12.63
2022-09-18T07:04:32.689Z,9.57
2022-09-18T07:06:59.160Z,9.17
2022-09-18T07:09:25.984Z,9.83
2022-09-18T07:11:52.496Z,8.40
2022-09-18T07:14:18.975Z,8.20
2022-09-18T07:16:45.458Z,8.33
2022-09-18T07:19:12.200Z,7.30
2022-09-18T07:21:39.573Z,7.33
2022-09-18T07:24:06.362Z,7.50
2022-09-18T07:26:32.995Z,8.93
2022-09-18T07:28:59.426Z,9.30
2022-09-18T07:31:25.891Z,10.23
2022-09-18T07:33:53.325Z,9.83
2022-09-18T07:36:19.904Z,13.50
2022-09-18T07:38:51.155Z,11.27
2022-09-18T07:41:17.593Z,9.93
2022-09-18T07:43:44.107Z,10.13
2022-09-18T07:46:10.605Z,11.50
2022-09-18T07:48:37.293Z,12.73
2022-09-18T07:51:05.162Z,10.17
2022-09-18T07:53:32.449Z,13.80
2022-09-18T07:55:59.117Z,12.03
2022-09-18T07:58:25.819Z,12.50
2022-09-18T08:00:52.309Z,10.57
2022-09-18T08:03:19.021Z,12.27
2022-09-18T08:05:46.050Z,11.77
2022-09-18T08:08:14.679Z,16.00
2022-09-18T08:10:43.230Z,15.03
2022-09-18T08:13:10.060Z,11.43
2022-09-18T08:15:38.407Z,14.83
2022-09-18T08:18:06.848Z,11.80
2022-09-18T08:20:34.082Z,19.47
2022-09-18T08:23:03.887Z,11.33
2022-09-18T08:25:30.926Z,9.50
2022-09-18T08:28:04.225Z,16.60
2022-09-18T08:30:32.392Z,9.63
2022-09-18T08:33:00.197Z,9.57
2022-09-18T08:35:27.467Z,9.57
2022-09-18T08:37:54.322Z,11.37
2022-09-18T08:40:24.400Z,9.10
2022-09-18T08:43:23.031Z,10.47
2022-09-18T08:46:24.398Z,7.23
2022-09-18T08:48:58.784Z,7.70
2022-09-18T08:51:34.456Z,8.43
2022-09-18T08:54:19.694Z,10.40
2022-09-18T08:56:46.978Z,9.47
2022-09-18T08:59:30.166Z,10.53
2022-09-18T09:02:24.815Z,9.57
2022-09-18T09:04:54.401Z,11.30
2022-09-18T09:07:32.598Z,9.73
2022-09-18T09:10:17.880Z,12.63
2022-09-18T09:12:57.625Z,11.40
2022-09-18T09:15:52.339Z,9.47
2022-09-18T09:18:23.405Z,9.77
2022-09-18T09:20:54.680Z,10.50
2022-09-18T09:23:49.073Z,10.00
2022-09-18T09:26:20.166Z,8.53
2022-09-18T09:28:59.464Z,8.57
2022-09-18T09:31:37.229Z,7.60
2022-09-18T09:34:14.628Z,14.63
2022-09-18T09:36:42.414Z,5.33
2022-09-18T09:39:18.854Z,6.67
2022-09-18T09:41:53.241Z,8.33
2022-09-18T09:44:44.067Z,10.63
2022-09-18T09:47:13.326Z,8.70
2022-09-18T09:49:47.983Z,5.13
2022-09-18T09:52:25.889Z,4.90
2022-09-18T09:55:07.432Z,8.50
2022-09-18T09:57:45.600Z,6.13
2022-09-18T10:00:19.994Z,5.10
2022-09-18T10:03:24.284Z,5.17
2022-09-18T10:05:55.121Z,4.53
2022-09-18T10:08:29.402Z,8.03
2022-09-18T10:10:58.716Z,6.27
2022-09-18T10:13:44.109Z,5.20
2022-09-18T10:16:16.223Z,6.57
2022-09-18T10:18:47.102Z,9.73
2022-09-18T10:21:17.062Z,6.80
2022-09-18T10:24:02.520Z,8.97
2022-09-18T10:26:38.009Z,6.93
2022-09-18T10:29:04.601Z,6.97
2022-09-18T10:31:52.443Z,9.13
2022-09-18T10:34:37.059Z,4.93
2022-09-18T10:37:04.208Z,5.47
2022-09-18T10:39:34.196Z,7.03
2022-09-18T10:42:02.477Z,12.07
2022-09-18T10:44:36.599Z,4.57
2022-09-18T10:47:11.067Z,7.93
2022-09-18T10:49:40.916Z,9.03
2022-09-18T10:52:40.113Z,7.77
2022-09-18T10:55:07.345Z,5.90
2022-09-18T10:57:37.435Z,7.90
2022-09-18T11:00:29.309Z,6.60
2022-09-18T11:03:01.705Z,12.30
2022-09-18T11:05:33.554Z,8.67
2022-09-18T11:08:02.118Z,5.07
2022-09-18T11:10:32.659Z,6.07
2022-09-18T11:13:01.615Z,8.23
2022-09-18T11:15:32.681Z,5.50
2022-09-18T11:18:05.041Z,8.57
2022-09-18T11:20:35.219Z,6.47
2022-09-18T11:23:26.343Z,5.93
2022-09-18T11:26:19.683Z,8.90
2022-09-18T11:29:02.937Z,6.70
2022-09-18T11:31:41.653Z,3.73
2022-09-18T11:34:21.934Z,7.13
2022-09-18T11:36:50.445Z,5.07
2022-09-18T11:39:24.548Z,5.97
2022-09-18T11:41:51.973Z,5.47
2022-09-18T11:44:34.865Z,6.33
2022-09-18T11:47:23.918Z,7.40
2022-09-18T11:49:55.320Z,8.67
2022-09-18T11:52:45.476Z,5.37
2022-09-18T11:55:18.237Z,4.73
2022-09-18T11:57:51.224Z,4.50
2022-09-18T12:00:22.132Z,7.70
2022-09-18T12:03:05.200Z,5.17
2022-09-18T12:05:44.258Z,6.77
2022-09-18T12:08:36.133Z,7.20
2022-09-18T12:11:20.708Z,3.73
2022-09-18T12:14:16.185Z,4.10
2022-09-18T12:17:00.625Z,4.27
2022-09-18T12:19:40.187Z,4.23
2022-09-18T12:22:21.369Z,4.00
2022-09-18T12:24:48.940Z,5.77
2022-09-18T12:27:33.073Z,5.47
2022-09-18T12:30:11.400Z,6.23
2022-09-18T12:32:41.969Z,7.70
2022-09-18T12:35:25.615Z,6.53
2022-09-18T12:38:04.487Z,4.20
2022-09-18T12:40:43.824Z,5.73
2022-09-18T12:43:36.093Z,7.03
2022-09-18T12:46:37.619Z,4.13
2022-09-18T12:49:07.771Z,4.60
2022-09-18T12:51:42.387Z,5.00
2022-09-18T12:54:27.896Z,6.57
2022-09-18T12:57:40.739Z,4.27
2022-09-18T13:00:14.909Z,6.03
2022-09-18T13:03:09.170Z,6.00
2022-09-18T13:05:38.410Z,7.27
2022-09-18T13:08:14.144Z,6.37
2022-09-18T13:10:45.522Z,6.23
2022-09-18T13:13:14.812Z,7.87
2022-09-18T13:15:57.501Z,5.63
2022-09-18T13:18:31.037Z,5.53
2022-09-18T13:20:58.804Z,6.63
2022-09-18T13:23:35.129Z,7.67
2022-09-18T13:26:04.424Z,4.73
2022-09-18T13:28:32.201Z,6.80
2022-09-18T13:31:20.152Z,8.37
2022-09-18T13:33:56.073Z,7.63
2022-09-18T13:36:43.881Z,6.37
2022-09-18T13:39:20.952Z,8.27
2022-09-18T13:41:50.536Z,8.17
2022-09-18T13:44:22.036Z,7.43
2022-09-18T13:46:50.188Z,5.40
2022-09-18T13:49:27.112Z,7.63
2022-09-18T13:51:53.577Z,7.97
2022-09-18T13:54:23.493Z,7.67
2022-09-18T13:57:02.978Z,8.90
2022-09-18T13:59:53.064Z,5.60
2022-09-18T14:02:39.397Z,7.23
2022-09-18T14:05:05.757Z,6.87
2022-09-18T14:07:32.413Z,11.30
2022-09-18T14:10:03.882Z,12.47
2022-09-18T14:12:33.652Z,13.50
2022-09-18T14:15:25.067Z,10.67
2022-09-18T14:18:07.020Z,7.93
2022-09-18T14:20:33.883Z,10.73
2022-09-18T14:23:34.539Z,10.23
2022-09-18T14:26:02.064Z,8.33
2022-09-18T14:28:29.244Z,6.93
2022-09-18T14:31:29.981Z,7.70
2022-09-18T14:34:12.717Z,9.20
2022-09-18T14:36:47.488Z,9.00
2022-09-18T14:39:25.752Z,10.10
2022-09-18T14:41:53.579Z,9.50
2022-09-18T14:44:20.342Z,12.50
2022-09-18T14:46:57.516Z,14.33
2022-09-18T14:49:32.409Z,10.40
2022-09-18T14:52:04.215Z,14.67
2022-09-18T14:54:32.583Z,12.17
2022-09-18T14:57:03.113Z,12.57
2022-09-18T14:59:29.654Z,13.47
2022-09-18T15:02:23.099Z,13.10
2022-09-18T15:04:49.903Z,12.53
2022-09-18T15:07:18.726Z,16.40
2022-09-18T15:09:49.099Z,14.30
2022-09-18T15:12:18.841Z,13.07
2022-09-18T15:14:47.667Z,17.33
2022-09-18T15:17:23.432Z,13.97
2022-09-18T15:20:09.849Z,15.10
2022-09-18T15:22:36.851Z,14.50
2022-09-18T15:25:03.631Z,12.60
2022-09-18T15:27:32.153Z,13.40
2022-09-18T15:30:09.735Z,14.63
2022-09-18T15:32:39.054Z,14.27
2022-09-18T15:35:08.654Z,15.97
2022-09-18T15:37:38.311Z,13.00
2022-09-18T15:40:11.280Z,10.83
2022-09-18T15:42:42.143Z,10.93
2022-09-18T15:45:14.769Z,16.03
2022-09-18T15:47:42.921Z,12.23
2022-09-18T15:50:12.170Z,13.07
2022-09-18T15:52:47.392Z,13.30
2022-09-18T15:55:20.086Z,10.70
2022-09-18T15:58:29.924Z,13.27
2022-09-18T16:01:01.819Z,10.77
2022-09-18T16:03:30.182Z,12.73
2022-09-18T16:06:00.247Z,14.10
2022-09-18T16:08:29.700Z,11.77
2022-09-18T16:10:59.665Z,12.57
2022-09-18T16:13:26.131Z,13.20
2022-09-18T16:16:08.382Z,10.53
2022-09-18T16:19:02.808Z,11.67
2022-09-18T16:21:30.764Z,12.23
2022-09-18T16:24:00.903Z,11.20
2022-09-18T16:26:33.149Z,10.20
2022-09-18T16:29:02.743Z,10.77
2022-09-18T16:31:31.991Z,11.90
2022-09-18T16:34:04.760Z,10.37
2022-09-18T16:36:34.682Z,16.07
2022-09-18T16:39:05.857Z,12.47
2022-09-18T16:41:33.586Z,11.23
2022-09-18T16:44:01.019Z,17.53
2022-09-18T16:46:33.824Z,10.53
2022-09-18T16:49:00.842Z,11.90
2022-09-18T16:51:27.421Z,11.40
2022-09-18T16:53:54.265Z,8.53
2022-09-18T16:56:25.361Z,12.77
2022-09-18T16:58:52.288Z,13.03
2022-09-18T17:01:23.215Z,11.43
2022-09-18T17:03:50.575Z,12.53
2022-09-18T17:06:19.024Z,13.63
2022-09-18T17:08:46.920Z,11.80
2022-09-18T17:11:13.647Z,13.90
2022-09-18T17:13:40.182Z,17.10
2022-09-18T17:16:06.887Z,14.33
2022-09-18T17:18:34.507Z,13.63
2022-09-18T17:21:02.932Z,18.80
2022-09-18T17:23:33.236Z,11.03
2022-09-18T17:26:08.836Z,11.30
2022-09-18T17:28:36.577Z,8.93
2022-09-18T17:31:19.946Z,10.53
2022-09-18T17:33:47.077Z,8.23
2022-09-18T17:36:15.640Z,8.27
2022-09-18T17:38:42.550Z,8.93
2022-09-18T17:41:11.504Z,8.93
2022-09-18T17:43:38.285Z,8.73
2022-09-18T17:46:09.699Z,8.07
2022-09-18T17:48:36.552Z,7.90
2022-09-18T17:51:18.903Z,8.07
2022-09-18T17:53:47.521Z,7.67
2022-09-18T17:56:18.904Z,7.70
2022-09-18T17:58:45.931Z,9.50
2022-09-18T18:01:21.454Z,7.77
2022-09-18T18:03:48.519Z,10.80
2022-09-18T18:06:21.031Z,11.03
2022-09-18T18:08:48.311Z,6.67
2022-09-18T18:11:17.803Z,5.97
2022-09-18T18:13:45.297Z,4.37
2022-09-18T18:16:21.395Z,4.90
2022-09-18T18:18:48.208Z,5.37
2022-09-18T18:21:14.736Z,4.03
2022-09-18T18:23:42.271Z,3.73
2022-09-18T18:26:09.769Z,6.30
2022-09-18T18:28:37.941Z,4.80
2022-09-18T18:31:07.352Z,3.70
2022-09-18T18:33:35.313Z,5.40
2022-09-18T18:36:19.524Z,4.20
2022-09-18T18:38:50.671Z,5.60
2022-09-18T18:41:19.179Z,10.13
2022-09-18T18:43:46.458Z,6.03
2022-09-18T18:46:13.910Z,5.37
2022-09-18T18:48:41.192Z,5.57
2022-09-18T18:51:09.636Z,7.87
2022-09-18T18:53:36.342Z,7.53
2022-09-18T18:56:08.682Z,8.23
2022-09-18T18:58:36.031Z,9.47
2022-09-18T19:01:14.772Z,7.57
2022-09-18T19:03:53.039Z,10.90
2022-09-18T19:06:20.010Z,9.10
2022-09-18T19:08:47.428Z,6.57
2022-09-18T19:11:15.879Z,10.00
2022-09-18T19:13:45.757Z,10.73
2022-09-18T19:16:12.986Z,7.90
2022-09-18T19:18:39.918Z,12.37
2022-09-18T19:21:07.368Z,8.53
2022-09-18T19:23:34.808Z,10.10
2022-09-18T19:26:02.626Z,9.37
2022-09-18T19:28:30.278Z,7.90
2022-09-18T19:31:04.544Z,14.77
2022-09-18T19:33:33.135Z,8.33
2022-09-18T19:36:06.422Z,10.53
2022-09-18T19:38:36.262Z,13.57
2022-09-18T19:41:41.835Z,10.27
2022-09-18T19:44:41.637Z,9.97
2022-09-18T19:47:32.447Z,6.67
2022-09-18T19:49:59.742Z,12.67
2022-09-18T19:52:30.194Z,5.57
2022-09-18T19:54:58.116Z,8.30
2022-09-18T19:57:26.254Z,8.13
2022-09-18T19:59:54.237Z,8.60
2022-09-18T20:02:21.628Z,5.83
2022-09-18T20:04:48.266Z,5.83
2022-09-18T20:07:14.898Z,8.47
2022-09-18T20:09:41.425Z,7.70
2022-09-18T20:12:08.975Z,8.80
2022-09-18T20:14:35.387Z,7.60
2022-09-18T20:17:01.983Z,9.73
2022-09-18T20:19:28.643Z,6.73
2022-09-18T20:21:55.127Z,7.00
2022-09-18T20:24:21.660Z,7.80
2022-09-18T20:26:48.231Z,5.77
2022-09-18T20:29:16.389Z,7.23
2022-09-18T20:31:43.411Z,5.17
2022-09-18T20:34:11.039Z,6.77
2022-09-18T20:36:38.158Z,8.00
2022-09-18T20:39:05.099Z,5.27
2022-09-18T20:41:31.867Z,6.97
2022-09-18T20:44:04.820Z,6.63
2022-09-18T20:46:36.354Z,8.43
2022-09-18T20:49:03.834Z,9.87
2022-09-18T20:51:34.910Z,7.50
2022-09-18T20:54:03.126Z,10.47
2022-09-18T20:56:36.137Z,8.20
2022-09-18T20:59:05.257Z,11.77
2022-09-18T21:01:35.197Z,8.43
2022-09-18T21:04:02.367Z,9.70
2022-09-18T21:06:33.625Z,13.43
2022-09-18T21:09:04.327Z,17.23
2022-09-18T21:11:32.080Z,16.10
2022-09-18T21:14:00.836Z,13.60
2022-09-18T21:16:29.656Z,18.93
2022-09-18T21:18:57.875Z,14.47
2022-09-18T21:21:25.234Z,17.33
2022-09-18T21:23:56.293Z,15.50
2022-09-18T21:26:28.043Z,21.30
2022-09-18T21:29:02.046Z,16.60
2022-09-18T21:31:29.294Z,13.07
2022-09-18T21:33:58.836Z,22.80
2022-09-18T21:36:26.384Z,17.77
2022-09-18T21:38:54.083Z,16.67
2022-09-18T21:41:21.987Z,11.27
2022-09-18T21:43:50.624Z,18.77
2022-09-18T21:46:19.819Z,17.77
2022-09-18T21:48:47.519Z,15.03
2022-09-18T21:51:16.344Z,14.37
2022-09-18T21:53:43.920Z,19.63
2022-09-18T21:56:19.728Z,16.00
2022-09-18T21:58:47.676Z,20.47
2022-09-18T22:01:19.239Z,17.93
2022-09-18T22:03:56.293Z,20.00
2022-09-18T22:06:25.930Z,14.77
2022-09-18T22:08:54.867Z,17.30
2022-09-18T22:11:24.318Z,21.43
2022-09-18T22:13:52.619Z,18.10
2022-09-18T22:16:20.108Z,19.77
2022-09-18T22:18:49.307Z,19.50
2022-09-18T22:21:22.569Z,15.80
2022-09-18T22:23:51.116Z,23.47
2022-09-18T22:26:19.020Z,21.53
2022-09-18T22:28:50.253Z,19.97
2022-09-18T22:31:18.078Z,23.73
2022-09-18T22:33:46.206Z,24.00
2022-09-18T22:36:13.552Z,24.43
2022-09-18T22:38:40.187Z,21.27
2022-09-18T22:41:08.226Z,20.37
2022-09-18T22:43:35.295Z,23.63
2022-09-18T22:46:07.940Z,20.90
2022-09-18T22:48:34.910Z,19.70
2022-09-18T22:51:07.537Z,20.60
2022-09-18T22:53:34.550Z,27.13
2022-09-18T22:56:12.322Z,23.63
2022-09-18T22:58:41.242Z,23.07
2022-09-18T23:01:20.398Z,27.77
2022-09-18T23:03:49.242Z,20.90
2022-09-18T23:06:16.356Z,21.50
2022-09-18T23:08:44.457Z,25.93
2022-09-18T23:11:13.727Z,20.63
2022-09-18T23:13:49.328Z,21.03
2022-09-18T23:16:16.212Z,25.20
2022-09-18T23:18:48.012Z,18.33
2022-09-18T23:21:14.447Z,13.80
2022-09-18T23:23:48.586Z,18.83
2022-09-18T23:26:23.557Z,21.53
2022-09-18T23:28:52.554Z,15.30
2022-09-18T23:31:27.415Z,13.70
2022-09-18T23:33:56.088Z,20.37
2022-09-18T23:36:25.104Z,15.57
2022-09-18T23:38:56.299Z,15.10
2022-09-18T23:41:22.974Z,15.50
2022-09-18T23:43:50.955Z,20.43
2022-09-18T23:46:18.122Z,15.27
2022-09-18T23:48:45.352Z,23.07
2022-09-18T23:51:12.322Z,12.23
2022-09-18T23:53:40.312Z,13.17
2022-09-18T23:56:09.492Z,14.73
2022-09-18T23:58:36.513Z,13.87
